createdAt,value
2023-03-20T00:00:03.312Z,26.10
2023-03-20T00:00:33.393Z,26.09
2023-03-20T00:01:03.474Z,26.12
2023-03-20T00:01:33.566Z,26.15
2023-03-20T00:02:03.656Z,26.13
2023-03-20T00:02:33.733Z,26.10
2023-03-20T00:03:03.821Z,26.10
2023-03-20T00:03:34.019Z,26.15
2023-03-20T00:04:04.030Z,26.12
2023-03-20T00:04:34.143Z,26.12
2023-03-20T00:05:04.087Z,26.10
2023-03-20T00:05:34.284Z,26.09
2023-03-20T00:06:04.060Z,26.12
2023-03-20T00:06:34.142Z,26.12
2023-03-20T00:07:04.221Z,26.10
2023-03-20T00:07:34.310Z,26.12
2023-03-20T00:08:04.398Z,26.10
2023-03-20T00:08:34.476Z,26.10
2023-03-20T00:09:06.962Z,26.12
2023-03-20T00:09:34.564Z,26.10
2023-03-20T00:10:04.682Z,26.10
2023-03-20T00:10:34.800Z,26.10
2023-03-20T00:11:04.798Z,26.12
2023-03-20T00:11:34.799Z,26.13
2023-03-20T00:12:04.923Z,26.13
2023-03-20T00:12:34.914Z,26.13
2023-03-20T00:13:05.033Z,26.09
2023-03-20T00:13:35.146Z,26.09
2023-03-20T00:14:05.150Z,26.12
2023-03-20T00:14:35.143Z,26.12
2023-03-20T00:15:05.256Z,26.10
2023-03-20T00:15:35.723Z,26.10
2023-03-20T00:16:05.395Z,26.13
2023-03-20T00:16:35.378Z,26.12
2023-03-20T00:17:05.374Z,26.10
2023-03-20T00:17:35.490Z,26.12
2023-03-20T00:18:05.525Z,26.12
2023-03-20T00:18:35.502Z,26.10
2023-03-20T00:19:05.601Z,26.09
2023-03-20T00:19:35.603Z,26.10
2023-03-20T00:20:05.613Z,26.10
2023-03-20T00:20:35.912Z,26.10
2023-03-20T00:21:05.643Z,26.09
2023-03-20T00:21:35.762Z,26.12
2023-03-20T00:22:05.886Z,26.12
2023-03-20T00:22:35.892Z,26.12
2023-03-20T00:23:05.895Z,26.13
2023-03-20T00:23:35.898Z,26.09
2023-03-20T00:24:05.891Z,26.12
2023-03-20T00:24:36.007Z,26.10
2023-03-20T00:25:06.126Z,26.10
2023-03-20T00:25:36.441Z,26.07
2023-03-20T00:26:06.171Z,26.10
2023-03-20T00:26:36.189Z,26.12
2023-03-20T00:27:06.169Z,26.10
2023-03-20T00:27:36.289Z,26.10
2023-03-20T00:28:06.346Z,26.12
2023-03-20T00:28:36.364Z,26.09
2023-03-20T00:29:06.451Z,26.09
2023-03-20T00:29:36.447Z,26.10
2023-03-20T00:30:06.569Z,26.07
2023-03-20T00:30:36.713Z,26.09
2023-03-20T00:31:06.717Z,26.12
2023-03-20T00:31:36.876Z,26.09
2023-03-20T00:32:06.858Z,26.09
2023-03-20T00:32:36.905Z,26.10
2023-03-20T00:33:06.946Z,26.09
2023-03-20T00:33:36.920Z,26.09
2023-03-20T00:34:07.039Z,26.10
2023-03-20T00:34:37.036Z,26.10
2023-03-20T00:35:07.154Z,26.07
2023-03-20T00:35:37.546Z,26.10
2023-03-20T00:36:07.218Z,26.10
2023-03-20T00:36:37.178Z,26.09
2023-03-20T00:37:07.185Z,26.09
2023-03-20T00:37:37.295Z,26.07
2023-03-20T00:38:07.427Z,26.09
2023-03-20T00:38:37.436Z,26.10
2023-03-20T00:39:07.567Z,26.07
2023-03-20T00:39:37.568Z,26.12
2023-03-20T00:40:07.662Z,26.10
2023-03-20T00:40:37.658Z,26.10
2023-03-20T00:41:07.652Z,26.09
2023-03-20T00:41:37.769Z,26.09
2023-03-20T00:42:07.883Z,26.10
2023-03-20T00:42:37.922Z,26.09
2023-03-20T00:43:07.933Z,26.07
2023-03-20T00:43:37.923Z,26.09
2023-03-20T00:44:08.036Z,26.07
2023-03-20T00:44:40.725Z,26.09
2023-03-20T00:45:08.215Z,26.09
2023-03-20T00:45:38.426Z,26.10
2023-03-20T00:46:08.417Z,26.09
2023-03-20T00:46:38.603Z,26.09
2023-03-20T00:47:08.775Z,26.07
2023-03-20T00:47:38.784Z,26.09
2023-03-20T00:48:08.764Z,26.07
2023-03-20T00:48:38.878Z,26.09
2023-03-20T00:49:08.995Z,26.09
2023-03-20T00:49:38.994Z,26.07
2023-03-20T00:50:09.107Z,26.07
2023-03-20T00:50:39.248Z,26.07
2023-03-20T00:51:09.225Z,26.09
2023-03-20T00:51:39.346Z,26.07
2023-03-20T00:52:09.465Z,26.07
2023-03-20T00:52:39.482Z,26.06
2023-03-20T00:53:09.517Z,26.10
2023-03-20T00:53:39.514Z,26.07
2023-03-20T00:54:09.510Z,26.07
2023-03-20T00:54:39.621Z,26.09
2023-03-20T00:55:09.617Z,26.06
2023-03-20T00:55:39.733Z,26.06
2023-03-20T00:56:09.847Z,26.07
2023-03-20T00:56:39.842Z,26.06
2023-03-20T00:57:09.963Z,26.07
2023-03-20T00:57:40.087Z,26.07
2023-03-20T00:58:10.227Z,26.09
2023-03-20T00:58:40.213Z,26.07
2023-03-20T00:59:10.319Z,26.06
2023-03-20T00:59:40.407Z,26.06
2023-03-20T01:00:10.480Z,26.09
2023-03-20T01:00:40.619Z,26.09
2023-03-20T01:01:10.593Z,26.06
2023-03-20T01:01:40.695Z,26.06
2023-03-20T01:02:10.802Z,26.06
2023-03-20T01:02:40.893Z,26.06
2023-03-20T01:03:11.029Z,26.06
2023-03-20T01:03:41.113Z,26.06
2023-03-20T01:04:11.186Z,26.06
2023-03-20T01:04:41.267Z,26.07
2023-03-20T01:05:11.362Z,26.07
2023-03-20T01:05:41.471Z,26.06
2023-03-20T01:06:11.523Z,26.07
2023-03-20T01:06:41.599Z,26.05
2023-03-20T01:07:11.683Z,26.06
2023-03-20T01:07:41.789Z,26.07
2023-03-20T01:08:11.869Z,26.07
2023-03-20T01:08:41.957Z,26.05
2023-03-20T01:09:12.050Z,26.05
2023-03-20T01:09:42.166Z,26.05
2023-03-20T01:10:12.166Z,26.06
2023-03-20T01:10:42.284Z,26.07
2023-03-20T01:11:12.402Z,26.05
2023-03-20T01:11:42.407Z,26.09
2023-03-20T01:12:12.404Z,26.06
2023-03-20T01:12:42.509Z,26.06
2023-03-20T01:13:12.628Z,26.05
2023-03-20T01:13:42.643Z,26.06
2023-03-20T01:14:12.636Z,26.06
2023-03-20T01:14:42.746Z,26.06
2023-03-20T01:15:12.741Z,26.07
2023-03-20T01:15:42.856Z,26.05
2023-03-20T01:16:12.993Z,26.05
2023-03-20T01:16:43.110Z,26.03
2023-03-20T01:17:13.605Z,26.05
2023-03-20T01:17:43.092Z,26.05
2023-03-20T01:18:13.219Z,26.06
2023-03-20T01:18:43.209Z,26.05
2023-03-20T01:19:13.339Z,26.05
2023-03-20T01:19:43.440Z,26.03
2023-03-20T01:20:13.562Z,26.03
2023-03-20T01:20:43.555Z,26.02
2023-03-20T01:21:13.693Z,26.03
2023-03-20T01:21:43.670Z,26.02
2023-03-20T01:22:13.660Z,26.03
2023-03-20T01:22:43.774Z,26.03
2023-03-20T01:23:13.899Z,26.05
2023-03-20T01:23:43.899Z,26.06
2023-03-20T01:24:13.889Z,26.02
2023-03-20T01:24:44.006Z,26.02
2023-03-20T01:25:14.124Z,26.00
2023-03-20T01:25:44.245Z,25.99
2023-03-20T01:26:14.258Z,26.03
2023-03-20T01:26:44.378Z,26.03
2023-03-20T01:27:14.498Z,26.00
2023-03-20T01:27:44.613Z,26.00
2023-03-20T01:28:14.744Z,26.00
2023-03-20T01:28:44.854Z,25.99
2023-03-20T01:29:14.845Z,26.02
2023-03-20T01:29:44.982Z,26.02
2023-03-20T01:30:14.964Z,26.03
2023-03-20T01:30:45.077Z,26.00
2023-03-20T01:31:15.191Z,26.02
2023-03-20T01:31:45.234Z,26.02
2023-03-20T01:32:15.204Z,26.02
2023-03-20T01:32:45.389Z,26.03
2023-03-20T01:33:15.379Z,26.02
2023-03-20T01:33:45.359Z,26.03
2023-03-20T01:34:15.363Z,26.02
2023-03-20T01:34:45.478Z,26.02
2023-03-20T01:35:15.602Z,26.00
2023-03-20T01:35:45.729Z,25.99
2023-03-20T01:36:15.830Z,26.03
2023-03-20T01:36:45.741Z,26.03
2023-03-20T01:37:15.866Z,26.03
2023-03-20T01:37:45.855Z,26.03
2023-03-20T01:38:15.970Z,26.03
2023-03-20T01:38:46.098Z,26.00
2023-03-20T01:39:16.089Z,25.99
2023-03-20T01:39:46.211Z,26.02
2023-03-20T01:40:16.319Z,26.00
2023-03-20T01:40:46.434Z,26.02
2023-03-20T01:41:16.559Z,26.02
2023-03-20T01:41:46.675Z,26.00
2023-03-20T01:42:16.789Z,26.03
2023-03-20T01:42:46.786Z,26.00
2023-03-20T01:43:16.902Z,26.03
2023-03-20T01:43:47.024Z,26.02
2023-03-20T01:44:17.027Z,26.00
2023-03-20T01:44:47.022Z,26.00
2023-03-20T01:45:17.130Z,25.98
2023-03-20T01:45:47.152Z,26.00
2023-03-20T01:46:17.179Z,26.02
2023-03-20T01:46:47.171Z,26.02
2023-03-20T01:47:17.153Z,26.00
2023-03-20T01:47:47.275Z,26.00
2023-03-20T01:48:17.272Z,26.00
2023-03-20T01:48:47.267Z,26.02
2023-03-20T01:49:17.257Z,26.02
2023-03-20T01:49:47.372Z,26.02
2023-03-20T01:50:17.496Z,26.00
2023-03-20T01:50:47.607Z,26.00
2023-03-20T01:51:17.727Z,26.02
2023-03-20T01:51:47.868Z,26.00
2023-03-20T01:52:17.841Z,25.99
2023-03-20T01:52:48.003Z,25.99
2023-03-20T01:53:17.994Z,25.99
2023-03-20T01:53:48.133Z,25.99
2023-03-20T01:54:18.119Z,26.02
2023-03-20T01:54:48.239Z,26.00
2023-03-20T01:55:18.253Z,26.00
2023-03-20T01:55:48.368Z,26.00
2023-03-20T01:56:18.498Z,25.98
2023-03-20T01:56:48.605Z,25.99
2023-03-20T01:57:18.730Z,26.00
2023-03-20T01:57:48.896Z,26.00
2023-03-20T01:58:18.867Z,26.00
2023-03-20T01:58:48.987Z,26.00
2023-03-20T01:59:19.081Z,26.00
2023-03-20T01:59:49.158Z,26.00
2023-03-20T02:00:19.241Z,25.99
2023-03-20T02:00:49.345Z,26.03
2023-03-20T02:01:19.506Z,26.00
2023-03-20T02:01:49.491Z,26.00
2023-03-20T02:02:19.579Z,25.99
2023-03-20T02:02:49.659Z,25.99
2023-03-20T02:03:19.769Z,26.00
2023-03-20T02:03:49.834Z,25.99
2023-03-20T02:04:20.005Z,25.99
2023-03-20T02:04:50.054Z,26.03
2023-03-20T02:05:20.012Z,26.02
2023-03-20T02:05:50.068Z,25.99
2023-03-20T02:06:20.148Z,25.99
2023-03-20T02:06:50.255Z,26.00
2023-03-20T02:07:20.318Z,25.99
2023-03-20T02:07:50.408Z,25.99
2023-03-20T02:08:20.489Z,26.00
2023-03-20T02:08:50.580Z,25.96
2023-03-20T02:09:20.693Z,25.99
2023-03-20T02:09:50.788Z,25.98
2023-03-20T02:10:20.792Z,25.99
2023-03-20T02:10:50.788Z,25.99
2023-03-20T02:11:20.901Z,26.00
2023-03-20T02:11:51.026Z,26.00
2023-03-20T02:12:21.016Z,26.00
2023-03-20T02:12:51.208Z,25.99
2023-03-20T02:13:21.212Z,25.99
2023-03-20T02:13:51.250Z,25.98
2023-03-20T02:14:21.300Z,25.99
2023-03-20T02:14:51.283Z,26.00
2023-03-20T02:15:21.275Z,25.99
2023-03-20T02:15:51.393Z,25.99
2023-03-20T02:16:21.453Z,25.98
2023-03-20T02:16:51.466Z,25.98
2023-03-20T02:17:21.523Z,26.00
2023-03-20T02:17:51.653Z,25.99
2023-03-20T02:18:21.650Z,25.98
2023-03-20T02:18:51.769Z,26.00
2023-03-20T02:19:21.884Z,25.99
2023-03-20T02:19:52.009Z,25.99
2023-03-20T02:20:21.997Z,26.00
2023-03-20T02:20:51.993Z,25.99
2023-03-20T02:21:22.106Z,25.98
2023-03-20T02:21:52.266Z,26.00
2023-03-20T02:22:22.235Z,25.98
2023-03-20T02:22:52.266Z,25.99
2023-03-20T02:23:22.262Z,25.98
2023-03-20T02:23:52.258Z,26.00
2023-03-20T02:24:22.257Z,26.00
2023-03-20T02:24:52.373Z,25.99
2023-03-20T02:25:22.488Z,25.99
2023-03-20T02:25:52.484Z,26.00
2023-03-20T02:26:22.486Z,25.98
2023-03-20T02:26:52.602Z,25.99
2023-03-20T02:27:22.712Z,25.96
2023-03-20T02:27:52.828Z,25.98
2023-03-20T02:28:23.012Z,25.99
2023-03-20T02:28:53.009Z,25.98
2023-03-20T02:29:23.126Z,25.99
2023-03-20T02:29:53.122Z,25.99
2023-03-20T02:30:23.114Z,25.98
2023-03-20T02:30:53.261Z,26.00
2023-03-20T02:31:23.503Z,26.00
2023-03-20T02:31:53.363Z,25.98
2023-03-20T02:32:23.361Z,25.99
2023-03-20T02:32:53.520Z,25.99
2023-03-20T02:33:23.595Z,25.98
2023-03-20T02:33:53.567Z,25.96
2023-03-20T02:34:23.576Z,25.99
2023-03-20T02:34:53.680Z,25.98
2023-03-20T02:35:23.791Z,25.98
2023-03-20T02:35:53.946Z,25.98
2023-03-20T02:36:23.941Z,25.99
2023-03-20T02:36:54.077Z,25.96
2023-03-20T02:37:24.171Z,25.99
2023-03-20T02:37:54.214Z,25.96
2023-03-20T02:38:24.211Z,25.96
2023-03-20T02:38:54.365Z,25.95
2023-03-20T02:39:24.349Z,25.98
2023-03-20T02:39:54.335Z,25.98
2023-03-20T02:40:24.329Z,25.98
2023-03-20T02:40:54.459Z,25.99
2023-03-20T02:41:24.485Z,25.98
2023-03-20T02:41:54.482Z,25.98
2023-03-20T02:42:24.479Z,25.95
2023-03-20T02:42:54.629Z,25.96
2023-03-20T02:43:24.625Z,25.96
2023-03-20T02:43:54.758Z,25.98
2023-03-20T02:44:24.776Z,25.98
2023-03-20T02:44:54.754Z,25.98
2023-03-20T02:45:24.753Z,25.98
2023-03-20T02:45:54.783Z,25.98
2023-03-20T02:46:24.808Z,25.96
2023-03-20T02:46:54.777Z,25.96
2023-03-20T02:47:24.775Z,25.98
2023-03-20T02:47:54.785Z,25.95
2023-03-20T02:48:24.780Z,25.96
2023-03-20T02:48:54.771Z,25.95
2023-03-20T02:49:24.889Z,25.96
2023-03-20T02:49:55.008Z,25.95
2023-03-20T02:50:25.116Z,25.96
2023-03-20T02:50:55.240Z,25.93
2023-03-20T02:51:25.233Z,25.93
2023-03-20T02:51:55.359Z,25.96
2023-03-20T02:52:25.378Z,25.95
2023-03-20T02:52:55.544Z,25.95
2023-03-20T02:53:25.525Z,25.93
2023-03-20T02:53:55.654Z,25.98
2023-03-20T02:54:25.641Z,25.95
2023-03-20T02:54:55.763Z,25.95
2023-03-20T02:55:25.879Z,25.96
2023-03-20T02:55:55.998Z,25.95
2023-03-20T02:56:26.113Z,25.96
2023-03-20T02:56:56.233Z,25.95
2023-03-20T02:57:26.222Z,25.95
2023-03-20T02:57:56.343Z,25.93
2023-03-20T02:58:26.465Z,25.95
2023-03-20T02:58:56.584Z,25.95
2023-03-20T02:59:26.674Z,25.95
2023-03-20T02:59:56.758Z,25.95
2023-03-20T03:00:26.836Z,25.93
2023-03-20T03:00:56.911Z,25.95
2023-03-20T03:01:27.033Z,25.96
2023-03-20T03:01:57.130Z,25.95
2023-03-20T03:02:27.195Z,25.93
2023-03-20T03:02:57.210Z,25.92
2023-03-20T03:03:27.186Z,25.96
2023-03-20T03:03:57.297Z,25.95
2023-03-20T03:04:27.369Z,25.95
2023-03-20T03:04:57.448Z,25.93
2023-03-20T03:05:27.532Z,25.93
2023-03-20T03:05:57.613Z,25.95
2023-03-20T03:06:27.696Z,25.93
2023-03-20T03:06:57.765Z,25.93
2023-03-20T03:07:27.873Z,25.93
2023-03-20T03:07:57.952Z,25.95
2023-03-20T03:08:28.034Z,25.91
2023-03-20T03:08:58.126Z,25.93
2023-03-20T03:09:28.131Z,25.92
2023-03-20T03:09:58.125Z,25.93
2023-03-20T03:10:28.247Z,25.93
2023-03-20T03:10:58.242Z,25.93
2023-03-20T03:11:28.238Z,25.95
2023-03-20T03:11:58.240Z,25.92
2023-03-20T03:12:28.352Z,25.93
2023-03-20T03:12:58.474Z,25.93
2023-03-20T03:13:28.464Z,25.93
2023-03-20T03:13:58.584Z,25.89
2023-03-20T03:14:28.577Z,25.93
2023-03-20T03:14:58.577Z,25.93
2023-03-20T03:15:28.569Z,25.92
2023-03-20T03:15:58.751Z,25.95
2023-03-20T03:16:28.788Z,25.89
2023-03-20T03:16:58.780Z,25.93
2023-03-20T03:17:28.906Z,25.89
2023-03-20T03:17:59.040Z,25.91
2023-03-20T03:18:29.033Z,25.93
2023-03-20T03:18:59.041Z,25.92
2023-03-20T03:19:29.045Z,25.92
2023-03-20T03:19:59.150Z,25.93
2023-03-20T03:20:29.144Z,25.91
2023-03-20T03:20:59.269Z,25.91
2023-03-20T03:21:29.378Z,25.92
2023-03-20T03:21:59.497Z,25.91
2023-03-20T03:22:29.495Z,25.91
2023-03-20T03:22:59.705Z,25.92
2023-03-20T03:23:29.719Z,25.91
2023-03-20T03:23:59.834Z,25.91
2023-03-20T03:24:40.493Z,25.92
2023-03-20T03:24:59.842Z,25.93
2023-03-20T03:25:29.957Z,25.93
2023-03-20T03:26:00.103Z,25.93
2023-03-20T03:26:30.101Z,25.92
2023-03-20T03:27:00.235Z,25.91
2023-03-20T03:27:30.330Z,25.91
2023-03-20T03:28:00.328Z,25.91
2023-03-20T03:28:30.332Z,25.92
2023-03-20T03:29:00.475Z,25.93
2023-03-20T03:29:30.461Z,25.91
2023-03-20T03:30:00.604Z,25.93
2023-03-20T03:30:30.594Z,25.92
2023-03-20T03:31:00.773Z,25.92
2023-03-20T03:31:30.979Z,25.92
2023-03-20T03:32:00.859Z,25.91
2023-03-20T03:32:30.981Z,25.91
2023-03-20T03:33:01.182Z,25.91
2023-03-20T03:33:31.173Z,25.89
2023-03-20T03:34:01.319Z,25.89
2023-03-20T03:34:31.292Z,25.89
2023-03-20T03:35:01.430Z,25.89
2023-03-20T03:35:31.590Z,25.89
2023-03-20T03:36:01.594Z,25.91
2023-03-20T03:36:31.557Z,25.88
2023-03-20T03:37:01.675Z,25.87
2023-03-20T03:37:31.672Z,25.91
2023-03-20T03:38:01.718Z,25.91
2023-03-20T03:38:31.699Z,25.89
2023-03-20T03:39:01.681Z,25.89
2023-03-20T03:39:31.679Z,25.89
2023-03-20T03:40:01.669Z,25.89
2023-03-20T03:40:31.792Z,25.89
2023-03-20T03:41:01.790Z,25.88
2023-03-20T03:41:31.805Z,25.89
2023-03-20T03:42:01.918Z,25.89
2023-03-20T03:42:32.030Z,25.92
2023-03-20T03:43:02.183Z,25.89
2023-03-20T03:43:32.179Z,25.89
2023-03-20T03:44:02.308Z,25.89
2023-03-20T03:44:32.295Z,25.88
2023-03-20T03:45:02.436Z,25.89
2023-03-20T03:45:32.411Z,25.87
2023-03-20T03:46:02.535Z,25.88
2023-03-20T03:46:32.667Z,25.89
2023-03-20T03:47:02.742Z,25.88
2023-03-20T03:47:32.663Z,25.88
2023-03-20T03:48:02.798Z,25.89
2023-03-20T03:48:32.786Z,25.91
2023-03-20T03:49:02.787Z,25.88
2023-03-20T03:49:32.781Z,25.88
2023-03-20T03:50:02.900Z,25.89
2023-03-20T03:50:32.891Z,25.89
2023-03-20T03:51:03.020Z,25.88
2023-03-20T03:51:33.136Z,25.91
2023-03-20T03:52:03.247Z,25.92
2023-03-20T03:52:33.337Z,25.91
2023-03-20T03:53:03.385Z,25.91
2023-03-20T03:53:33.403Z,25.95
2023-03-20T03:54:03.509Z,25.96
2023-03-20T03:54:33.543Z,25.95
2023-03-20T03:55:03.525Z,25.98
2023-03-20T03:55:33.808Z,26.02
2023-03-20T03:56:03.794Z,26.00
2023-03-20T03:56:33.831Z,26.03
2023-03-20T03:57:03.947Z,26.05
2023-03-20T03:57:34.064Z,26.05
2023-03-20T03:58:04.073Z,26.06
2023-03-20T03:58:34.062Z,26.15
2023-03-20T03:59:04.175Z,26.13
2023-03-20T03:59:34.261Z,26.13
2023-03-20T04:00:04.337Z,26.17
2023-03-20T04:00:34.416Z,26.19
2023-03-20T04:01:04.500Z,26.22
2023-03-20T04:01:34.595Z,26.23
2023-03-20T04:02:04.786Z,26.24
2023-03-20T04:02:34.720Z,26.26
2023-03-20T04:03:04.806Z,26.26
2023-03-20T04:03:34.891Z,26.26
2023-03-20T04:04:05.075Z,26.29
2023-03-20T04:04:35.106Z,26.27
2023-03-20T04:05:05.167Z,26.30
2023-03-20T04:05:35.402Z,26.30
2023-03-20T04:06:05.058Z,26.30
2023-03-20T04:06:35.137Z,26.33
2023-03-20T04:07:05.216Z,26.34
2023-03-20T04:07:35.297Z,26.34
2023-03-20T04:08:05.372Z,26.34
2023-03-20T04:08:35.480Z,26.37
2023-03-20T04:09:05.574Z,26.36
2023-03-20T04:09:35.563Z,26.40
2023-03-20T04:10:05.568Z,26.37
2023-03-20T04:10:35.558Z,26.36
2023-03-20T04:11:05.674Z,26.37
2023-03-20T04:11:35.687Z,26.39
2023-03-20T04:12:05.670Z,26.39
2023-03-20T04:12:35.660Z,26.43
2023-03-20T04:13:05.776Z,26.40
2023-03-20T04:13:35.939Z,26.40
2023-03-20T04:14:05.926Z,26.40
2023-03-20T04:14:35.969Z,26.43
2023-03-20T04:15:05.940Z,26.47
2023-03-20T04:15:36.303Z,26.47
2023-03-20T04:16:05.957Z,26.44
2023-03-20T04:16:36.032Z,26.46
2023-03-20T04:17:06.040Z,26.46
2023-03-20T04:17:36.158Z,26.48
2023-03-20T04:18:06.280Z,26.47
2023-03-20T04:18:36.270Z,26.50
2023-03-20T04:19:06.288Z,26.48
2023-03-20T04:19:36.280Z,26.51
2023-03-20T04:20:06.278Z,26.48
2023-03-20T04:20:36.269Z,26.48
2023-03-20T04:21:06.383Z,26.47
2023-03-20T04:21:36.519Z,26.50
2023-03-20T04:22:06.637Z,26.48
2023-03-20T04:22:36.747Z,26.48
2023-03-20T04:23:06.866Z,26.50
2023-03-20T04:23:36.973Z,26.51
2023-03-20T04:24:07.046Z,26.48
2023-03-20T04:24:37.017Z,26.50
2023-03-20T04:25:07.008Z,26.51
2023-03-20T04:25:37.225Z,26.48
2023-03-20T04:26:07.073Z,26.51
2023-03-20T04:26:37.182Z,26.51
2023-03-20T04:27:07.172Z,26.50
2023-03-20T04:27:37.303Z,26.51
2023-03-20T04:28:07.289Z,26.50
2023-03-20T04:28:37.286Z,26.51
2023-03-20T04:29:07.291Z,26.53
2023-03-20T04:29:39.207Z,26.51
2023-03-20T04:30:46.301Z,26.48
2023-03-20T04:31:16.379Z,26.48
2023-03-20T04:31:46.562Z,26.46
2023-03-20T04:32:16.526Z,26.44
2023-03-20T04:32:46.737Z,26.44
2023-03-20T04:33:16.612Z,26.46
2023-03-20T04:33:46.701Z,26.46
2023-03-20T04:34:16.807Z,26.43
2023-03-20T04:34:46.898Z,26.43
2023-03-20T04:35:16.977Z,26.41
2023-03-20T04:35:47.132Z,26.41
2023-03-20T04:36:17.157Z,26.44
2023-03-20T04:36:47.093Z,26.43
2023-03-20T04:37:17.173Z,26.43
2023-03-20T04:37:47.258Z,26.43
2023-03-20T04:38:17.335Z,26.43
2023-03-20T04:38:47.424Z,26.43
2023-03-20T04:39:17.526Z,26.44
2023-03-20T04:39:47.599Z,26.44
2023-03-20T04:40:17.696Z,26.41
2023-03-20T04:40:47.825Z,26.44
2023-03-20T04:41:17.927Z,26.46
2023-03-20T04:41:47.933Z,26.46
2023-03-20T04:42:17.918Z,26.22
2023-03-20T04:42:48.049Z,26.33
2023-03-20T04:43:18.037Z,26.34
2023-03-20T04:43:48.037Z,26.33
2023-03-20T04:44:18.210Z,26.33
2023-03-20T04:44:48.208Z,26.34
2023-03-20T04:45:18.209Z,26.34
2023-03-20T04:45:48.347Z,26.36
2023-03-20T04:46:18.355Z,26.34
2023-03-20T04:46:48.456Z,26.37
2023-03-20T04:47:18.563Z,26.40
2023-03-20T04:47:48.568Z,26.37
2023-03-20T04:48:18.674Z,26.39
2023-03-20T04:48:48.787Z,26.39
2023-03-20T04:49:18.916Z,26.39
2023-03-20T04:49:48.905Z,26.40
2023-03-20T04:50:19.021Z,26.39
2023-03-20T04:50:49.013Z,26.39
2023-03-20T04:51:19.131Z,26.36
2023-03-20T04:51:49.259Z,26.37
2023-03-20T04:52:19.258Z,26.39
2023-03-20T04:52:49.374Z,26.37
2023-03-20T04:53:19.504Z,26.37
2023-03-20T04:53:49.505Z,26.39
2023-03-20T04:54:19.543Z,26.37
2023-03-20T04:54:49.525Z,26.37
2023-03-20T04:55:19.638Z,26.36
2023-03-20T04:55:49.752Z,26.39
2023-03-20T04:56:19.778Z,26.36
2023-03-20T04:56:49.774Z,26.39
2023-03-20T04:57:19.900Z,26.39
2023-03-20T04:57:50.016Z,26.37
2023-03-20T04:58:20.003Z,26.41
2023-03-20T04:58:50.122Z,26.43
2023-03-20T04:59:20.251Z,26.43
2023-03-20T04:59:50.240Z,26.43
2023-03-20T05:00:20.235Z,26.44
2023-03-20T05:00:50.446Z,26.44
2023-03-20T05:01:20.531Z,26.46
2023-03-20T05:01:50.517Z,26.46
2023-03-20T05:02:20.633Z,26.48
2023-03-20T05:02:50.747Z,26.51
2023-03-20T05:03:23.845Z,26.53
2023-03-20T05:03:50.834Z,26.53
2023-03-20T05:04:20.845Z,26.55
2023-03-20T05:04:50.842Z,26.51
2023-03-20T05:05:20.961Z,26.54
2023-03-20T05:05:50.997Z,26.53
2023-03-20T05:06:21.001Z,26.57
2023-03-20T05:06:51.113Z,26.54
2023-03-20T05:07:21.234Z,26.57
2023-03-20T05:07:51.347Z,26.57
2023-03-20T05:08:21.471Z,26.61
2023-03-20T05:08:51.460Z,26.60
2023-03-20T05:09:21.607Z,26.61
2023-03-20T05:09:51.592Z,26.60
2023-03-20T05:10:21.695Z,26.62
2023-03-20T05:10:51.815Z,26.62
2023-03-20T05:11:21.941Z,26.64
2023-03-20T05:11:51.944Z,26.67
2023-03-20T05:12:22.044Z,26.68
2023-03-20T05:12:52.159Z,26.65
2023-03-20T05:13:22.161Z,26.67
2023-03-20T05:13:52.151Z,26.68
2023-03-20T05:14:22.169Z,26.70
2023-03-20T05:14:52.166Z,26.71
2023-03-20T05:15:22.279Z,26.67
2023-03-20T05:15:52.391Z,26.68
2023-03-20T05:16:22.484Z,26.70
2023-03-20T05:16:52.603Z,26.70
2023-03-20T05:17:22.612Z,26.72
2023-03-20T05:17:52.680Z,26.72
2023-03-20T05:18:22.692Z,26.72
2023-03-20T05:18:52.815Z,26.74
2023-03-20T05:19:22.803Z,26.74
2023-03-20T05:19:52.803Z,26.75
2023-03-20T05:20:22.913Z,26.72
2023-03-20T05:20:53.031Z,26.75
2023-03-20T05:21:23.152Z,26.77
2023-03-20T05:21:53.146Z,26.79
2023-03-20T05:22:23.273Z,26.81
2023-03-20T05:22:53.399Z,26.84
2023-03-20T05:23:23.410Z,26.79
2023-03-20T05:23:53.519Z,26.84
2023-03-20T05:24:23.504Z,26.84
2023-03-20T05:24:53.651Z,26.84
2023-03-20T05:25:23.639Z,26.81
2023-03-20T05:25:53.752Z,26.87
2023-03-20T05:26:23.745Z,26.88
2023-03-20T05:26:53.878Z,26.88
2023-03-20T05:27:23.861Z,26.84
2023-03-20T05:27:53.994Z,26.87
2023-03-20T05:28:23.992Z,26.85
2023-03-20T05:28:54.102Z,26.84
2023-03-20T05:29:24.236Z,26.82
2023-03-20T05:29:54.223Z,26.81
2023-03-20T05:30:24.333Z,26.81
2023-03-20T05:30:54.446Z,26.79
2023-03-20T05:31:24.566Z,26.77
2023-03-20T05:31:54.634Z,26.78
2023-03-20T05:32:24.707Z,26.78
2023-03-20T05:32:54.879Z,26.77
2023-03-20T05:33:24.831Z,26.79
2023-03-20T05:33:54.928Z,26.82
2023-03-20T05:34:25.029Z,26.79
2023-03-20T05:34:55.117Z,26.78
2023-03-20T05:35:25.202Z,26.77
2023-03-20T05:35:55.358Z,26.79
2023-03-20T05:36:25.294Z,26.77
2023-03-20T05:36:55.390Z,26.78
2023-03-20T05:37:25.474Z,26.79
2023-03-20T05:37:55.556Z,26.79
2023-03-20T05:38:25.662Z,26.79
2023-03-20T05:38:55.714Z,26.82
2023-03-20T05:39:25.807Z,26.79
2023-03-20T05:39:55.932Z,26.79
2023-03-20T05:40:26.000Z,26.84
2023-03-20T05:40:55.999Z,26.82
2023-03-20T05:41:26.006Z,26.82
2023-03-20T05:41:55.999Z,26.82
2023-03-20T05:42:25.990Z,26.81
2023-03-20T05:42:56.111Z,26.82
2023-03-20T05:43:26.109Z,26.82
2023-03-20T05:43:56.110Z,26.82
2023-03-20T05:44:26.239Z,26.81
2023-03-20T05:44:56.251Z,26.82
2023-03-20T05:45:26.240Z,26.85
2023-03-20T05:45:56.391Z,26.85
2023-03-20T05:46:26.516Z,26.85
2023-03-20T05:46:56.503Z,26.89
2023-03-20T05:47:26.611Z,26.85
2023-03-20T05:47:56.730Z,26.88
2023-03-20T05:48:26.724Z,26.88
2023-03-20T05:48:56.842Z,26.89
2023-03-20T05:49:26.846Z,26.89
2023-03-20T05:49:56.841Z,26.95
2023-03-20T05:50:26.960Z,26.94
2023-03-20T05:50:57.080Z,26.92
2023-03-20T05:51:27.098Z,26.92
2023-03-20T05:51:57.210Z,26.94
2023-03-20T05:52:27.207Z,26.91
2023-03-20T05:52:57.204Z,26.91
2023-03-20T05:53:27.318Z,26.91
2023-03-20T05:53:57.426Z,26.92
2023-03-20T05:54:27.438Z,26.91
2023-03-20T05:54:57.426Z,26.92
2023-03-20T05:55:27.445Z,26.95
2023-03-20T05:55:57.556Z,26.91
2023-03-20T05:56:27.738Z,26.92
2023-03-20T05:56:59.180Z,26.96
2023-03-20T05:57:27.770Z,26.92
2023-03-20T05:57:57.892Z,26.95
2023-03-20T05:58:27.886Z,26.92
2023-03-20T05:58:58.009Z,26.98
2023-03-20T05:59:28.016Z,26.95
2023-03-20T05:59:58.010Z,26.91
2023-03-20T06:00:28.129Z,26.94
2023-03-20T06:00:58.119Z,26.94
2023-03-20T06:01:28.118Z,26.94
2023-03-20T06:01:58.114Z,26.92
2023-03-20T06:02:28.162Z,26.89
2023-03-20T06:02:58.253Z,26.88
2023-03-20T06:03:28.276Z,26.85
2023-03-20T06:03:58.296Z,26.87
2023-03-20T06:04:28.347Z,26.84
2023-03-20T06:04:58.464Z,26.84
2023-03-20T06:05:28.459Z,26.85
2023-03-20T06:05:58.587Z,26.85
2023-03-20T06:06:28.699Z,26.87
2023-03-20T06:06:58.696Z,26.88
2023-03-20T06:07:28.813Z,26.88
2023-03-20T06:07:58.825Z,26.87
2023-03-20T06:08:28.819Z,26.88
2023-03-20T06:08:58.939Z,26.94
2023-03-20T06:09:29.051Z,26.92
2023-03-20T06:09:59.057Z,26.98
2023-03-20T06:10:29.051Z,26.95
2023-03-20T06:10:59.066Z,26.96
2023-03-20T06:11:29.068Z,27.01
2023-03-20T06:11:59.050Z,27.01
2023-03-20T06:12:29.165Z,27.02
2023-03-20T06:12:59.177Z,27.01
2023-03-20T06:13:29.167Z,26.98
2023-03-20T06:13:59.290Z,27.02
2023-03-20T06:14:29.325Z,27.01
2023-03-20T06:14:59.315Z,27.02
2023-03-20T06:15:29.429Z,27.01
2023-03-20T06:15:59.591Z,27.02
2023-03-20T06:16:29.743Z,27.05
2023-03-20T06:16:59.593Z,27.05
2023-03-20T06:17:29.711Z,27.02
2023-03-20T06:17:59.830Z,27.05
2023-03-20T06:18:29.945Z,27.06
2023-03-20T06:18:59.947Z,27.06
2023-03-20T06:19:29.963Z,27.05
2023-03-20T06:19:59.966Z,27.06
2023-03-20T06:20:30.079Z,27.07
2023-03-20T06:21:00.108Z,27.06
2023-03-20T06:21:30.102Z,27.10
2023-03-20T06:22:00.218Z,27.07
2023-03-20T06:22:30.215Z,27.10
2023-03-20T06:23:00.215Z,27.10
2023-03-20T06:23:30.334Z,27.12
2023-03-20T06:24:00.331Z,27.13
2023-03-20T06:24:30.468Z,27.13
2023-03-20T06:25:00.452Z,27.13
2023-03-20T06:25:30.447Z,27.15
2023-03-20T06:26:00.454Z,27.17
2023-03-20T06:26:30.590Z,27.17
2023-03-20T06:27:00.590Z,27.22
2023-03-20T06:27:30.584Z,27.20